Kimball, NE

6:23 AM MST on February 22, 2018 (GMT -0700)
Kimball Municipal-Arraj

Weather History for KIBM - October, 2012

Change the Weather History Date:

Tuesday, October 9, 2012

  Actual Average (KSNY) Record (KSNY)
Temperature  
Mean Temperature 36 °F -  
Max Temperature 43 °F 63 °F 88 °F (2003)
Min Temperature 29 °F 33 °F 17 °F (2009)
Degree Days  
Heating Degree Days 29    
Moisture  
Dew Point 33 °F    
Average Humidity 81    
Maximum Humidity 96    
Minimum Humidity 58    
Precipitation  
Precipitation 0.00 in - - ()
Sea Level Pressure  
Sea Level Pressure 30.06 in    
Wind  
Wind Speed 7 mph (NNW)    
Max Wind Speed 13 mph    
Max Gust Speed 17 mph    
Visibility 9 miles    
Events      
Averages and records for this station are not official NWS values.
T = Trace of Precipitation, MM = Missing Value Source: NWS Daily Summary

Daily Weather History Graph

Daily Weather History Graph

Search for Another Location

Airport or City:

Trip Planner

Search our weather history database for the weather conditions in past years. The results will help you decide how hot, cold, wet, or windy it might be!

Date:

Astronomy

Oct. 09, 2012 Rise Set
Actual Time 8:00 AM CDT 7:22 PM CDT
Civil Twilight 7:32 AM CDT 7:50 PM CDT
Nautical Twilight 7:00 AM CDT 8:22 PM CDT
Astronomical Twilight 6:28 AM CDT 8:53 PM CDT
Moon 1:35 AM CDT (10/9) 3:54 PM CDT (10/9)
Length of Visible Light 12h 17m
Length of Day
11h 22m
Last Quarter, 36% of the Moon is Illuminated
Oct 9
Last Quarter
Oct 15
New
Oct 21
First Quarter
Oct 29
Full
Nov 6
Last Quarter

Hourly Weather History & Observations

Time (CDT) Temp. Windchill Dew Point Humidity Pressure Visibility Wind Dir Wind Speed Gust Speed Precip Events Conditions
12:15 AM 40.6 °F 38.6 °F 31.3 °F 69% 29.86 in 10.0 mi North 3.5 mph - N/A   Clear
12:35 AM 42.8 °F 38.6 °F 30.2 °F 61% 29.86 in 10.0 mi NNW 6.9 mph - N/A   Clear
12:55 AM 42.1 °F 37.1 °F 29.7 °F 61% 29.87 in 10.0 mi NNW 8.1 mph - N/A   Clear
1:15 AM 42.6 °F 38.4 °F 29.1 °F 59% 29.88 in 10.0 mi NNW 6.9 mph - N/A   Clear
1:55 AM 42.8 °F 37.5 °F 28.9 °F 58% 29.89 in 10.0 mi North 9.2 mph - N/A   Clear
2:15 AM 41.9 °F 35.0 °F 30.2 °F 63% 29.89 in 10.0 mi North 12.7 mph - N/A   Clear
3:15 AM 40.3 °F 34.9 °F 35.2 °F 82% 29.91 in 10.0 mi NNE 8.1 mph - N/A   Clear
3:35 AM 40.1 °F 33.6 °F 36.7 °F 88% 29.93 in 10.0 mi North 10.4 mph - N/A   Clear
3:55 AM 39.6 °F 34.7 °F 36.5 °F 89% 29.93 in 10.0 mi North 6.9 mph - N/A   Clear
4:15 AM 38.1 °F 33.7 °F 35.6 °F 91% 29.93 in 10.0 mi North 5.8 mph - N/A   Clear
4:35 AM 37.9 °F 32.1 °F 35.8 °F 92% 29.93 in 10.0 mi North 8.1 mph - N/A   Clear
4:55 AM 36.9 °F 30.7 °F 34.9 °F 93% 29.94 in 10.0 mi North 8.1 mph - N/A   Clear
5:15 AM 36.7 °F 32.9 °F 35.1 °F 94% 29.93 in 10.0 mi North 4.6 mph - N/A   Clear
5:35 AM 36.0 °F 31.1 °F 34.5 °F 94% 29.94 in 10.0 mi North 5.8 mph - N/A   Clear
5:55 AM 35.2 °F 30.3 °F 33.6 °F 94% 29.95 in 10.0 mi NNW 5.8 mph - N/A   Clear
6:15 AM 34.7 °F 29.6 °F 33.3 °F 94% 29.96 in 10.0 mi NNW 5.8 mph - N/A   Clear
6:35 AM 35.1 °F 29.3 °F 33.8 °F 95% 29.97 in 10.0 mi NNW 6.9 mph - N/A   Clear
6:55 AM 35.6 °F 29.2 °F 34.5 °F 96% 29.98 in 10.0 mi North 8.1 mph - N/A   Clear
7:15 AM 37.0 °F 31.0 °F 35.8 °F 95% 29.99 in 10.0 mi NNE 8.1 mph - N/A   Mostly Cloudy
7:35 AM 37.6 °F 33.1 °F 36.0 °F 94% 29.99 in 10.0 mi North 5.8 mph - N/A   Overcast
7:55 AM 36.5 °F 31.0 °F 34.9 °F 94% 29.99 in 10.0 mi North 6.9 mph - N/A   Overcast
8:15 AM 36.9 °F 30.7 °F 35.6 °F 95% 30.00 in 10.0 mi North 8.1 mph - N/A   Overcast
8:35 AM 37.0 °F 31.0 °F 35.8 °F 95% 30.01 in 7.0 mi North 8.1 mph - N/A   Overcast
8:55 AM 38.5 °F 32.1 °F 37.4 °F 96% 30.02 in 10.0 mi North 9.2 mph - N/A   Mostly Cloudy
9:15 AM 40.1 °F 35.3 °F 37.9 °F 92% 30.04 in 10.0 mi North 6.9 mph - N/A   Mostly Cloudy
9:35 AM 41.2 °F 35.0 °F 37.2 °F 86% 30.05 in 10.0 mi North 10.4 mph - N/A   Overcast
9:55 AM 41.5 °F 36.4 °F 37.2 °F 85% 30.06 in 10.0 mi North 8.1 mph - N/A   Overcast
10:15 AM 41.2 °F 35.0 °F 36.7 °F 84% 30.07 in 10.0 mi North 10.4 mph - N/A   Overcast
10:35 AM 40.8 °F 34.1 °F 36.7 °F 85% 30.08 in 10.0 mi North 11.5 mph - N/A   Overcast
10:55 AM 39.4 °F 33.2 °F 37.0 °F 91% 30.08 in 3.0 mi North 9.2 mph - N/A   Overcast
11:15 AM 39.4 °F 33.2 °F 37.2 °F 92% 30.10 in 3.0 mi North 9.2 mph - N/A   Overcast
11:35 AM 39.2 °F 32.0 °F 37.0 °F 92% 30.10 in 3.0 mi NNE 11.5 mph - N/A   Overcast
11:55 AM 37.8 °F 31.8 °F 36.5 °F 95% 30.10 in 3.0 mi NE 8.1 mph - N/A   Overcast
12:15 PM 37.4 °F 32.1 °F 36.0 °F 95% 30.11 in 4.0 mi ENE 6.9 mph - N/A   Overcast
12:35 PM 37.8 °F 31.8 °F 36.5 °F 95% 30.11 in 3.0 mi NE 8.1 mph - N/A   Overcast
12:55 PM 37.6 °F 31.6 °F 36.3 °F 95% 30.11 in 5.0 mi NNE 8.1 mph - N/A   Light Drizzle
1:15 PM 38.3 °F 33.2 °F 36.5 °F 93% 30.11 in 10.0 mi NNE 6.9 mph - N/A   Overcast
1:35 PM 38.5 °F 32.7 °F 35.6 °F 89% 30.12 in 10.0 mi North 8.1 mph - N/A   Overcast
1:55 PM 38.5 °F 34.1 °F 35.6 °F 89% 30.12 in 10.0 mi North 5.8 mph - N/A   Overcast
2:15 PM 39.2 °F 33.0 °F 34.9 °F 84% 30.11 in 10.0 mi North 9.2 mph - N/A   Overcast
2:35 PM 40.1 °F 34.7 °F 34.5 °F 80% 30.11 in 10.0 mi North 8.1 mph - N/A   Overcast
2:55 PM 40.8 °F 34.1 °F 34.3 °F 78% 30.11 in 10.0 mi North 11.5 mph 17.3 mph N/A   Overcast
3:15 PM 40.5 °F 34.6 °F 33.4 °F 76% 30.11 in 10.0 mi NNW 9.2 mph - N/A   Overcast
3:35 PM 41.2 °F 38.2 °F 32.9 °F 72% 30.11 in 10.0 mi NNW 4.6 mph - N/A   Overcast
3:55 PM 42.3 °F 38.6 °F 32.0 °F 67% 30.11 in 10.0 mi NW 5.8 mph - N/A   Overcast
4:15 PM 42.8 °F 38.0 °F 31.5 °F 64% 30.11 in 10.0 mi North 8.1 mph - N/A   Overcast
4:35 PM 43.0 °F 38.2 °F 30.7 °F 62% 30.11 in 10.0 mi North 8.1 mph - N/A   Overcast
4:55 PM 43.2 °F 37.9 °F 30.7 °F 62% 30.12 in 10.0 mi NNW 9.2 mph - N/A   Overcast
5:15 PM 43.3 °F 38.6 °F 30.4 °F 60% 30.12 in 10.0 mi NNW 8.1 mph - N/A   Overcast
5:35 PM 43.3 °F 38.6 °F 30.0 °F 59% 30.12 in 10.0 mi NW 8.1 mph - N/A   Overcast
5:55 PM 43.3 °F 38.6 °F 30.0 °F 59% 30.12 in 10.0 mi WNW 8.1 mph - N/A   Overcast
6:15 PM 43.7 °F 41.1 °F 30.0 °F 59% 30.13 in 10.0 mi WNW 4.6 mph - N/A   Overcast
6:35 PM 43.3 °F 41.7 °F 30.2 °F 60% 30.13 in 10.0 mi West 3.5 mph - N/A   Overcast
6:55 PM 43.2 °F 40.5 °F 30.0 °F 60% 30.13 in 10.0 mi West 4.6 mph - N/A   Overcast
7:15 PM 42.4 °F 39.6 °F 30.6 °F 63% 30.15 in 10.0 mi West 4.6 mph - N/A   Overcast
7:35 PM 39.9 °F 36.7 °F 30.4 °F 69% 30.14 in 10.0 mi WNW 4.6 mph - N/A   Mostly Cloudy
7:55 PM 37.4 °F 31.4 °F 30.0 °F 75% 30.15 in 10.0 mi West 8.1 mph - N/A   Mostly Cloudy
8:15 PM 37.4 °F 30.8 °F 30.2 °F 75% 30.16 in 10.0 mi West 9.2 mph - N/A   Scattered Clouds
8:35 PM 36.5 °F 30.3 °F 30.2 °F 78% 30.16 in 10.0 mi West 8.1 mph - N/A   Clear
8:55 PM 33.6 °F 27.5 °F 28.8 °F 82% 30.16 in 10.0 mi West 6.9 mph - N/A   Clear
9:15 PM 34.0 °F 27.2 °F 29.3 °F 83% 30.17 in 10.0 mi West 8.1 mph - N/A   Clear
9:35 PM 33.8 °F 28.6 °F 29.3 °F 84% 30.17 in 10.0 mi WNW 5.8 mph - N/A   Clear
9:55 PM 33.3 °F 28.9 °F 28.4 °F 82% 30.17 in 10.0 mi NNW 4.6 mph - N/A   Clear
10:15 PM 29.8 °F 24.9 °F 26.6 °F 88% 30.17 in 10.0 mi North 4.6 mph - N/A   Clear
10:35 PM 32.7 °F 27.3 °F 29.1 °F 87% 30.19 in 10.0 mi WSW 5.8 mph - N/A   Clear
10:55 PM 32.0 °F 26.4 °F 28.8 °F 88% 30.19 in 10.0 mi West 5.8 mph - N/A   Clear
11:15 PM 31.6 °F 28.3 °F 28.4 °F 88% 30.19 in 10.0 mi WSW 3.5 mph - N/A   Clear
11:35 PM 31.5 °F 24.9 °F 28.2 °F 88% 30.19 in 10.0 mi WSW 6.9 mph - N/A   Clear
11:55 PM 30.7 °F 24.9 °F 27.7 °F 88% 30.19 in 10.0 mi WSW 5.8 mph - N/A   Clear